sensor_id;sensor_type;location;lat;lon;timestamp;temperature;humidity
19847;DHT22;10084;50.518;8.588;2022-12-07T00:01:35;4.70;95.50
19847;DHT22;10084;50.518;8.588;2022-12-07T00:04:03;4.70;96.50
19847;DHT22;10084;50.518;8.588;2022-12-07T00:06:43;4.70;96.80
19847;DHT22;10084;50.518;8.588;2022-12-07T00:09:16;4.70;98.40
19847;DHT22;10084;50.518;8.588;2022-12-07T00:11:42;4.70;96.40
19847;DHT22;10084;50.518;8.588;2022-12-07T00:14:12;4.70;97.10
19847;DHT22;10084;50.518;8.588;2022-12-07T00:16:38;4.80;97.30
19847;DHT22;10084;50.518;8.588;2022-12-07T00:19:04;4.70;97.10
19847;DHT22;10084;50.518;8.588;2022-12-07T00:21:32;4.70;96.50
19847;DHT22;10084;50.518;8.588;2022-12-07T00:23:58;4.70;96.00
19847;DHT22;10084;50.518;8.588;2022-12-07T00:26:26;4.70;96.00
19847;DHT22;10084;50.518;8.588;2022-12-07T00:28:58;4.70;95.40
19847;DHT22;10084;50.518;8.588;2022-12-07T00:31:27;4.70;95.40
19847;DHT22;10084;50.518;8.588;2022-12-07T00:33:53;4.70;95.40
19847;DHT22;10084;50.518;8.588;2022-12-07T00:36:23;4.70;95.40
19847;DHT22;10084;50.518;8.588;2022-12-07T00:38:50;4.70;95.40
19847;DHT22;10084;50.518;8.588;2022-12-07T00:41:21;4.70;95.50
19847;DHT22;10084;50.518;8.588;2022-12-07T00:43:48;4.70;95.70
19847;DHT22;10084;50.518;8.588;2022-12-07T00:46:14;4.70;95.90
19847;DHT22;10084;50.518;8.588;2022-12-07T00:48:41;4.70;96.00
19847;DHT22;10084;50.518;8.588;2022-12-07T00:51:07;4.70;97.00
19847;DHT22;10084;50.518;8.588;2022-12-07T00:53:35;4.70;97.30
19847;DHT22;10084;50.518;8.588;2022-12-07T00:56:10;4.70;96.50
19847;DHT22;10084;50.518;8.588;2022-12-07T00:58:36;4.80;97.60
19847;DHT22;10084;50.518;8.588;2022-12-07T01:01:04;4.70;96.90
19847;DHT22;10084;50.518;8.588;2022-12-07T01:03:30;4.70;95.10
19847;DHT22;10084;50.518;8.588;2022-12-07T01:05:57;4.70;94.90
19847;DHT22;10084;50.518;8.588;2022-12-07T01:08:24;4.70;95.10
19847;DHT22;10084;50.518;8.588;2022-12-07T01:11:03;4.70;95.20
19847;DHT22;10084;50.518;8.588;2022-12-07T01:13:29;4.70;95.60
19847;DHT22;10084;50.518;8.588;2022-12-07T01:16:00;4.70;95.90
19847;DHT22;10084;50.518;8.588;2022-12-07T01:18:27;4.70;95.90
19847;DHT22;10084;50.518;8.588;2022-12-07T01:21:07;4.60;95.70
19847;DHT22;10084;50.518;8.588;2022-12-07T01:23:34;4.60;95.90
19847;DHT22;10084;50.518;8.588;2022-12-07T01:26:02;4.60;95.90
19847;DHT22;10084;50.518;8.588;2022-12-07T01:28:28;4.50;95.80
19847;DHT22;10084;50.518;8.588;2022-12-07T01:30:59;4.40;96.30
19847;DHT22;10084;50.518;8.588;2022-12-07T01:33:27;4.30;97.50
19847;DHT22;10084;50.518;8.588;2022-12-07T01:35:53;4.20;94.90
19847;DHT22;10084;50.518;8.588;2022-12-07T01:38:19;4.10;94.80
19847;DHT22;10084;50.518;8.588;2022-12-07T01:40:44;4.10;94.80
19847;DHT22;10084;50.518;8.588;2022-12-07T01:43:16;4.00;95.20
19847;DHT22;10084;50.518;8.588;2022-12-07T01:45:43;4.00;95.10
19847;DHT22;10084;50.518;8.588;2022-12-07T01:48:11;4.00;95.20
19847;DHT22;10084;50.518;8.588;2022-12-07T01:50:38;4.00;95.40
19847;DHT22;10084;50.518;8.588;2022-12-07T01:53:06;4.10;95.60
19847;DHT22;10084;50.518;8.588;2022-12-07T01:55:38;4.10;95.80
19847;DHT22;10084;50.518;8.588;2022-12-07T01:58:05;4.10;95.60
19847;DHT22;10084;50.518;8.588;2022-12-07T02:00:32;4.20;95.80
19847;DHT22;10084;50.518;8.588;2022-12-07T02:05:30;4.30;95.30
19847;DHT22;10084;50.518;8.588;2022-12-07T02:07:56;4.30;94.80
19847;DHT22;10084;50.518;8.588;2022-12-07T02:10:26;4.30;94.70
19847;DHT22;10084;50.518;8.588;2022-12-07T02:13:06;4.40;94.70
19847;DHT22;10084;50.518;8.588;2022-12-07T02:19:11;4.40;94.60
19847;DHT22;10084;50.518;8.588;2022-12-07T02:27:45;4.40;94.70
19847;DHT22;10084;50.518;8.588;2022-12-07T02:30:14;4.40;94.60
19847;DHT22;10084;50.518;8.588;2022-12-07T02:38:25;4.40;94.60
19847;DHT22;10084;50.518;8.588;2022-12-07T02:41:33;4.40;94.60
19847;DHT22;10084;50.518;8.588;2022-12-07T02:43:55;4.40;94.70
19847;DHT22;10084;50.518;8.588;2022-12-07T02:46:28;4.40;94.80
19847;DHT22;10084;50.518;8.588;2022-12-07T02:48:55;4.40;94.80
19847;DHT22;10084;50.518;8.588;2022-12-07T02:51:22;4.40;94.80
19847;DHT22;10084;50.518;8.588;2022-12-07T02:53:47;4.40;94.80
19847;DHT22;10084;50.518;8.588;2022-12-07T02:56:27;4.40;94.80
19847;DHT22;10084;50.518;8.588;2022-12-07T02:59:16;4.50;94.80
19847;DHT22;10084;50.518;8.588;2022-12-07T03:04:54;4.50;94.70
19847;DHT22;10084;50.518;8.588;2022-12-07T03:07:39;4.40;94.80
19847;DHT22;10084;50.518;8.588;2022-12-07T03:13:19;4.40;94.90
19847;DHT22;10084;50.518;8.588;2022-12-07T03:18:35;4.40;95.00
19847;DHT22;10084;50.518;8.588;2022-12-07T03:21:08;4.50;95.00
19847;DHT22;10084;50.518;8.588;2022-12-07T03:23:37;4.50;95.00
19847;DHT22;10084;50.518;8.588;2022-12-07T03:26:05;4.50;95.20
19847;DHT22;10084;50.518;8.588;2022-12-07T03:28:40;4.50;95.20
19847;DHT22;10084;50.518;8.588;2022-12-07T03:34:02;4.50;95.30
19847;DHT22;10084;50.518;8.588;2022-12-07T03:36:37;4.50;95.40
19847;DHT22;10084;50.518;8.588;2022-12-07T03:41:59;4.60;95.50
19847;DHT22;10084;50.518;8.588;2022-12-07T03:44:26;4.50;95.50
19847;DHT22;10084;50.518;8.588;2022-12-07T03:49:34;4.50;95.70
19847;DHT22;10084;50.518;8.588;2022-12-07T03:52:23;4.50;95.80
19847;DHT22;10084;50.518;8.588;2022-12-07T03:57:45;4.50;96.00
19847;DHT22;10084;50.518;8.588;2022-12-07T04:00:13;4.60;96.20
19847;DHT22;10084;50.518;8.588;2022-12-07T04:02:39;4.60;96.50
19847;DHT22;10084;50.518;8.588;2022-12-07T04:05:06;4.60;96.80
19847;DHT22;10084;50.518;8.588;2022-12-07T04:07:32;4.60;97.40
19847;DHT22;10084;50.518;8.588;2022-12-07T04:09:58;4.60;97.40
19847;DHT22;10084;50.518;8.588;2022-12-07T04:12:23;4.60;97.90
19847;DHT22;10084;50.518;8.588;2022-12-07T04:14:49;4.60;97.20
19847;DHT22;10084;50.518;8.588;2022-12-07T04:17:15;4.70;97.30
19847;DHT22;10084;50.518;8.588;2022-12-07T04:19:41;4.70;98.00
19847;DHT22;10084;50.518;8.588;2022-12-07T04:22:06;4.60;96.60
19847;DHT22;10084;50.518;8.588;2022-12-07T04:24:33;4.70;95.90
19847;DHT22;10084;50.518;8.588;2022-12-07T04:26:59;4.80;96.40
19847;DHT22;10084;50.518;8.588;2022-12-07T04:29:25;4.80;96.10
19847;DHT22;10084;50.518;8.588;2022-12-07T04:31:51;4.80;96.10
19847;DHT22;10084;50.518;8.588;2022-12-07T04:34:17;4.80;96.10
19847;DHT22;10084;50.518;8.588;2022-12-07T04:36:44;4.80;96.10
19847;DHT22;10084;50.518;8.588;2022-12-07T04:39:25;4.80;95.90
19847;DHT22;10084;50.518;8.588;2022-12-07T04:41:51;4.70;96.20
19847;DHT22;10084;50.518;8.588;2022-12-07T04:44:36;4.70;96.60
19847;DHT22;10084;50.518;8.588;2022-12-07T04:47:02;4.60;97.00
19847;DHT22;10084;50.518;8.588;2022-12-07T04:49:28;4.60;97.40
19847;DHT22;10084;50.518;8.588;2022-12-07T04:51:55;4.60;98.10
19847;DHT22;10084;50.518;8.588;2022-12-07T04:54:20;4.60;98.20
19847;DHT22;10084;50.518;8.588;2022-12-07T04:56:46;4.60;98.30
19847;DHT22;10084;50.518;8.588;2022-12-07T04:59:12;4.60;97.50
19847;DHT22;10084;50.518;8.588;2022-12-07T05:01:38;4.60;96.00
19847;DHT22;10084;50.518;8.588;2022-12-07T05:04:04;4.60;95.90
19847;DHT22;10084;50.518;8.588;2022-12-07T05:06:30;4.60;95.90
19847;DHT22;10084;50.518;8.588;2022-12-07T05:08:56;4.60;95.70
19847;DHT22;10084;50.518;8.588;2022-12-07T05:11:21;4.50;95.60
19847;DHT22;10084;50.518;8.588;2022-12-07T05:14:13;4.50;95.60
19847;DHT22;10084;50.518;8.588;2022-12-07T05:16:40;4.50;95.50
19847;DHT22;10084;50.518;8.588;2022-12-07T05:19:06;4.40;95.60
19847;DHT22;10084;50.518;8.588;2022-12-07T05:21:32;4.40;95.70
19847;DHT22;10084;50.518;8.588;2022-12-07T05:23:58;4.50;95.90
19847;DHT22;10084;50.518;8.588;2022-12-07T05:26:24;4.50;95.90
19847;DHT22;10084;50.518;8.588;2022-12-07T05:28:52;4.50;95.90
19847;DHT22;10084;50.518;8.588;2022-12-07T05:31:18;4.60;95.90
19847;DHT22;10084;50.518;8.588;2022-12-07T05:33:44;4.70;95.90
19847;DHT22;10084;50.518;8.588;2022-12-07T05:36:10;4.70;95.80
19847;DHT22;10084;50.518;8.588;2022-12-07T05:38:35;4.80;95.70
19847;DHT22;10084;50.518;8.588;2022-12-07T05:41:05;4.80;95.60
19847;DHT22;10084;50.518;8.588;2022-12-07T05:43:31;4.90;95.60
19847;DHT22;10084;50.518;8.588;2022-12-07T05:45:58;4.90;95.50
19847;DHT22;10084;50.518;8.588;2022-12-07T05:48:25;4.90;95.40
19847;DHT22;10084;50.518;8.588;2022-12-07T05:50:51;5.00;95.40
19847;DHT22;10084;50.518;8.588;2022-12-07T05:53:18;5.00;95.40
19847;DHT22;10084;50.518;8.588;2022-12-07T05:55:44;5.00;95.40
19847;DHT22;10084;50.518;8.588;2022-12-07T05:58:10;5.00;95.40
19847;DHT22;10084;50.518;8.588;2022-12-07T06:00:55;5.10;95.40
19847;DHT22;10084;50.518;8.588;2022-12-07T06:03:21;5.10;95.40
19847;DHT22;10084;50.518;8.588;2022-12-07T06:05:46;5.10;95.40
19847;DHT22;10084;50.518;8.588;2022-12-07T06:08:12;5.10;95.40
19847;DHT22;10084;50.518;8.588;2022-12-07T06:10:40;5.10;95.40
19847;DHT22;10084;50.518;8.588;2022-12-07T06:13:08;5.10;95.40
19847;DHT22;10084;50.518;8.588;2022-12-07T06:15:36;5.10;95.50
19847;DHT22;10084;50.518;8.588;2022-12-07T06:18:02;5.10;95.40
19847;DHT22;10084;50.518;8.588;2022-12-07T06:20:28;5.10;95.40
19847;DHT22;10084;50.518;8.588;2022-12-07T06:22:54;5.10;95.40
19847;DHT22;10084;50.518;8.588;2022-12-07T06:25:19;5.20;95.50
19847;DHT22;10084;50.518;8.588;2022-12-07T06:27:45;5.10;95.50
19847;DHT22;10084;50.518;8.588;2022-12-07T06:30:11;5.10;95.40
19847;DHT22;10084;50.518;8.588;2022-12-07T06:32:37;5.10;95.50
19847;DHT22;10084;50.518;8.588;2022-12-07T06:35:03;5.10;95.50
19847;DHT22;10084;50.518;8.588;2022-12-07T06:37:29;5.10;95.50
19847;DHT22;10084;50.518;8.588;2022-12-07T06:39:55;5.20;95.60
19847;DHT22;10084;50.518;8.588;2022-12-07T06:42:21;5.20;95.70
19847;DHT22;10084;50.518;8.588;2022-12-07T06:44:47;5.20;95.60
19847;DHT22;10084;50.518;8.588;2022-12-07T06:47:12;5.20;95.70
19847;DHT22;10084;50.518;8.588;2022-12-07T06:49:38;5.20;95.70
19847;DHT22;10084;50.518;8.588;2022-12-07T06:52:04;5.30;95.80
19847;DHT22;10084;50.518;8.588;2022-12-07T06:54:31;5.30;95.80
19847;DHT22;10084;50.518;8.588;2022-12-07T06:56:57;5.30;95.70
19847;DHT22;10084;50.518;8.588;2022-12-07T06:59:22;5.30;95.70
19847;DHT22;10084;50.518;8.588;2022-12-07T07:01:48;5.30;95.60
19847;DHT22;10084;50.518;8.588;2022-12-07T07:04:14;5.20;95.50
19847;DHT22;10084;50.518;8.588;2022-12-07T07:06:39;5.10;95.60
19847;DHT22;10084;50.518;8.588;2022-12-07T07:09:05;5.10;95.80
19847;DHT22;10084;50.518;8.588;2022-12-07T07:11:31;5.00;96.00
19847;DHT22;10084;50.518;8.588;2022-12-07T07:13:57;5.00;96.10
19847;DHT22;10084;50.518;8.588;2022-12-07T07:16:30;5.00;96.30
19847;DHT22;10084;50.518;8.588;2022-12-07T07:18:57;4.90;96.30
19847;DHT22;10084;50.518;8.588;2022-12-07T07:21:23;4.90;96.50
19847;DHT22;10084;50.518;8.588;2022-12-07T07:23:49;4.90;96.70
19847;DHT22;10084;50.518;8.588;2022-12-07T07:26:15;4.80;97.00
19847;DHT22;10084;50.518;8.588;2022-12-07T07:28:41;4.80;97.60
19847;DHT22;10084;50.518;8.588;2022-12-07T07:31:06;4.80;99.20
19847;DHT22;10084;50.518;8.588;2022-12-07T07:33:32;4.80;97.30
19847;DHT22;10084;50.518;8.588;2022-12-07T07:35:58;4.80;97.10
19847;DHT22;10084;50.518;8.588;2022-12-07T07:38:23;4.80;97.00
19847;DHT22;10084;50.518;8.588;2022-12-07T07:40:49;4.70;97.00
19847;DHT22;10084;50.518;8.588;2022-12-07T07:43:15;4.70;97.00
19847;DHT22;10084;50.518;8.588;2022-12-07T07:45:41;4.70;97.00
19847;DHT22;10084;50.518;8.588;2022-12-07T07:48:06;4.70;96.90
19847;DHT22;10084;50.518;8.588;2022-12-07T07:50:32;4.60;97.00
19847;DHT22;10084;50.518;8.588;2022-12-07T07:52:58;4.60;97.00
19847;DHT22;10084;50.518;8.588;2022-12-07T07:55:23;4.60;97.20
19847;DHT22;10084;50.518;8.588;2022-12-07T07:57:49;4.60;97.30
19847;DHT22;10084;50.518;8.588;2022-12-07T08:00:16;4.60;97.80
19847;DHT22;10084;50.518;8.588;2022-12-07T08:02:42;4.90;99.80
19847;DHT22;10084;50.518;8.588;2022-12-07T08:05:10;5.40;99.90
19847;DHT22;10084;50.518;8.588;2022-12-07T08:07:35;5.90;99.20
19847;DHT22;10084;50.518;8.588;2022-12-07T08:10:01;6.30;98.30
19847;DHT22;10084;50.518;8.588;2022-12-07T08:12:27;6.70;96.90
19847;DHT22;10084;50.518;8.588;2022-12-07T08:14:53;7.00;95.70
19847;DHT22;10084;50.518;8.588;2022-12-07T08:17:18;7.20;94.50
19847;DHT22;10084;50.518;8.588;2022-12-07T08:19:44;7.10;94.20
19847;DHT22;10084;50.518;8.588;2022-12-07T08:22:10;7.10;95.00
19847;DHT22;10084;50.518;8.588;2022-12-07T08:24:36;7.60;95.30
19847;DHT22;10084;50.518;8.588;2022-12-07T08:27:02;8.20;94.30
19847;DHT22;10084;50.518;8.588;2022-12-07T08:29:29;8.80;93.50
19847;DHT22;10084;50.518;8.588;2022-12-07T08:31:55;9.10;92.30
19847;DHT22;10084;50.518;8.588;2022-12-07T08:34:21;9.20;91.30
19847;DHT22;10084;50.518;8.588;2022-12-07T08:36:47;8.90;90.90
19847;DHT22;10084;50.518;8.588;2022-12-07T08:39:12;8.70;91.40
19847;DHT22;10084;50.518;8.588;2022-12-07T08:41:38;9.20;92.40
19847;DHT22;10084;50.518;8.588;2022-12-07T08:44:04;10.90;82.20
19847;DHT22;10084;50.518;8.588;2022-12-07T08:46:54;11.00;82.80
19847;DHT22;10084;50.518;8.588;2022-12-07T08:49:27;12.20;80.70
19847;DHT22;10084;50.518;8.588;2022-12-07T08:51:55;13.10;79.30
19847;DHT22;10084;50.518;8.588;2022-12-07T08:54:21;13.40;77.90
19847;DHT22;10084;50.518;8.588;2022-12-07T08:56:48;13.30;76.40
19847;DHT22;10084;50.518;8.588;2022-12-07T08:59:16;13.00;75.80
19847;DHT22;10084;50.518;8.588;2022-12-07T09:01:43;12.50;76.00
19847;DHT22;10084;50.518;8.588;2022-12-07T09:04:08;11.90;76.30
19847;DHT22;10084;50.518;8.588;2022-12-07T09:06:34;11.30;77.00
19847;DHT22;10084;50.518;8.588;2022-12-07T09:09:01;11.30;79.60
19847;DHT22;10084;50.518;8.588;2022-12-07T09:11:27;11.60;79.00
19847;DHT22;10084;50.518;8.588;2022-12-07T09:13:52;12.00;78.30
19847;DHT22;10084;50.518;8.588;2022-12-07T09:16:18;12.30;77.20
19847;DHT22;10084;50.518;8.588;2022-12-07T09:18:44;12.40;76.80
19847;DHT22;10084;50.518;8.588;2022-12-07T09:21:10;12.50;77.40
19847;DHT22;10084;50.518;8.588;2022-12-07T09:23:35;12.80;77.60
19847;DHT22;10084;50.518;8.588;2022-12-07T09:26:02;12.90;77.20
19847;DHT22;10084;50.518;8.588;2022-12-07T09:28:28;12.80;76.50
19847;DHT22;10084;50.518;8.588;2022-12-07T09:30:53;12.50;76.30
19847;DHT22;10084;50.518;8.588;2022-12-07T09:33:19;12.00;76.60
19847;DHT22;10084;50.518;8.588;2022-12-07T09:35:49;11.60;76.90
19847;DHT22;10084;50.518;8.588;2022-12-07T09:38:16;11.10;77.40
19847;DHT22;10084;50.518;8.588;2022-12-07T09:40:42;10.70;78.00
19847;DHT22;10084;50.518;8.588;2022-12-07T09:43:24;10.40;78.70
19847;DHT22;10084;50.518;8.588;2022-12-07T09:45:53;10.10;79.10
19847;DHT22;10084;50.518;8.588;2022-12-07T09:48:22;9.80;79.60
19847;DHT22;10084;50.518;8.588;2022-12-07T09:50:52;9.60;79.70
19847;DHT22;10084;50.518;8.588;2022-12-07T09:53:31;9.40;79.90
19847;DHT22;10084;50.518;8.588;2022-12-07T09:55:59;9.30;80.90
19847;DHT22;10084;50.518;8.588;2022-12-07T09:58:28;9.70;82.70
19847;DHT22;10084;50.518;8.588;2022-12-07T10:00:57;10.30;82.40
19847;DHT22;10084;50.518;8.588;2022-12-07T10:03:26;10.90;81.10
19847;DHT22;10084;50.518;8.588;2022-12-07T10:05:52;11.10;79.30
19847;DHT22;10084;50.518;8.588;2022-12-07T10:08:18;11.10;78.30
19847;DHT22;10084;50.518;8.588;2022-12-07T10:10:50;10.90;78.00
19847;DHT22;10084;50.518;8.588;2022-12-07T10:15:59;10.30;78.30
19847;DHT22;10084;50.518;8.588;2022-12-07T10:18:37;10.10;78.60
19847;DHT22;10084;50.518;8.588;2022-12-07T10:21:16;9.90;79.20
19847;DHT22;10084;50.518;8.588;2022-12-07T10:26:31;9.50;79.30
19847;DHT22;10084;50.518;8.588;2022-12-07T10:29:17;9.30;79.40
19847;DHT22;10084;50.518;8.588;2022-12-07T10:31:45;9.00;79.50
19847;DHT22;10084;50.518;8.588;2022-12-07T10:34:24;8.80;79.70
19847;DHT22;10084;50.518;8.588;2022-12-07T10:36:52;8.60;79.80
19847;DHT22;10084;50.518;8.588;2022-12-07T10:39:22;8.40;80.10
19847;DHT22;10084;50.518;8.588;2022-12-07T10:41:59;8.20;80.30
19847;DHT22;10084;50.518;8.588;2022-12-07T10:44:30;8.00;80.60
19847;DHT22;10084;50.518;8.588;2022-12-07T10:52:26;8.00;82.40
19847;DHT22;10084;50.518;8.588;2022-12-07T10:55:16;8.20;83.50
19847;DHT22;10084;50.518;8.588;2022-12-07T10:58:12;8.60;84.60
19847;DHT22;10084;50.518;8.588;2022-12-07T11:06:27;9.10;81.70
19847;DHT22;10084;50.518;8.588;2022-12-07T11:09:00;9.10;81.50
19847;DHT22;10084;50.518;8.588;2022-12-07T11:12:02;9.00;81.10
19847;DHT22;10084;50.518;8.588;2022-12-07T11:14:44;8.90;80.90
19847;DHT22;10084;50.518;8.588;2022-12-07T11:23:03;9.40;84.20
19847;DHT22;10084;50.518;8.588;2022-12-07T11:31:24;10.30;82.40
19847;DHT22;10084;50.518;8.588;2022-12-07T11:36:36;10.30;80.10
19847;DHT22;10084;50.518;8.588;2022-12-07T11:39:28;10.30;80.80
19847;DHT22;10084;50.518;8.588;2022-12-07T11:42:08;12.10;81.50
19847;DHT22;10084;50.518;8.588;2022-12-07T11:44:53;12.80;80.20
19847;DHT22;10084;50.518;8.588;2022-12-07T11:47:30;13.60;78.40
19847;DHT22;10084;50.518;8.588;2022-12-07T11:52:59;13.90;74.90
19847;DHT22;10084;50.518;8.588;2022-12-07T11:55:42;13.60;74.80
19847;DHT22;10084;50.518;8.588;2022-12-07T12:00:44;12.80;74.90
19847;DHT22;10084;50.518;8.588;2022-12-07T12:03:17;12.40;75.20
19847;DHT22;10084;50.518;8.588;2022-12-07T12:05:48;12.10;75.70
19847;DHT22;10084;50.518;8.588;2022-12-07T12:08:26;11.80;75.90
19847;DHT22;10084;50.518;8.588;2022-12-07T12:11:00;11.70;77.50
19847;DHT22;10084;50.518;8.588;2022-12-07T12:19:23;12.20;78.30
19847;DHT22;10084;50.518;8.588;2022-12-07T12:21:56;12.30;78.70
19847;DHT22;10084;50.518;8.588;2022-12-07T12:26:55;13.10;77.10
19847;DHT22;10084;50.518;8.588;2022-12-07T12:29:34;13.40;76.70
19847;DHT22;10084;50.518;8.588;2022-12-07T12:32:17;13.60;75.50
19847;DHT22;10084;50.518;8.588;2022-12-07T12:42:58;14.30;74.60
19847;DHT22;10084;50.518;8.588;2022-12-07T12:45:25;14.70;73.70
19847;DHT22;10084;50.518;8.588;2022-12-07T12:48:36;15.00;72.20
19847;DHT22;10084;50.518;8.588;2022-12-07T12:54:04;14.40;69.60
19847;DHT22;10084;50.518;8.588;2022-12-07T12:59:26;13.30;70.10
19847;DHT22;10084;50.518;8.588;2022-12-07T13:10:30;11.10;71.50
19847;DHT22;10084;50.518;8.588;2022-12-07T13:26:22;10.10;73.30
19847;DHT22;10084;50.518;8.588;2022-12-07T13:29:12;10.00;73.80
19847;DHT22;10084;50.518;8.588;2022-12-07T13:31:52;10.20;74.20
19847;DHT22;10084;50.518;8.588;2022-12-07T13:34:37;10.30;73.40
19847;DHT22;10084;50.518;8.588;2022-12-07T13:37:18;10.10;72.60
19847;DHT22;10084;50.518;8.588;2022-12-07T13:39:51;9.90;72.60
19847;DHT22;10084;50.518;8.588;2022-12-07T13:42:28;9.60;72.70
19847;DHT22;10084;50.518;8.588;2022-12-07T13:44:58;9.40;73.10
19847;DHT22;10084;50.518;8.588;2022-12-07T13:47:36;9.20;73.50
19847;DHT22;10084;50.518;8.588;2022-12-07T13:52:50;8.90;73.90
19847;DHT22;10084;50.518;8.588;2022-12-07T13:55:17;8.70;73.90
19847;DHT22;10084;50.518;8.588;2022-12-07T13:57:45;8.60;74.20
19847;DHT22;10084;50.518;8.588;2022-12-07T14:00:22;8.50;74.70
19847;DHT22;10084;50.518;8.588;2022-12-07T14:05:37;8.40;75.00
19847;DHT22;10084;50.518;8.588;2022-12-07T14:08:22;8.30;75.20
19847;DHT22;10084;50.518;8.588;2022-12-07T14:13:31;8.20;75.40
19847;DHT22;10084;50.518;8.588;2022-12-07T14:15:58;8.20;75.60
19847;DHT22;10084;50.518;8.588;2022-12-07T14:18:29;8.20;75.60
19847;DHT22;10084;50.518;8.588;2022-12-07T14:21:05;8.10;75.50
19847;DHT22;10084;50.518;8.588;2022-12-07T14:23:31;8.10;75.60
19847;DHT22;10084;50.518;8.588;2022-12-07T14:26:15;8.00;75.70
19847;DHT22;10084;50.518;8.588;2022-12-07T14:28:42;8.00;75.80
19847;DHT22;10084;50.518;8.588;2022-12-07T14:31:18;8.00;75.90
19847;DHT22;10084;50.518;8.588;2022-12-07T14:33:46;8.00;75.90
19847;DHT22;10084;50.518;8.588;2022-12-07T14:36:13;8.00;75.90
19847;DHT22;10084;50.518;8.588;2022-12-07T14:38:39;7.90;75.80
19847;DHT22;10084;50.518;8.588;2022-12-07T14:41:12;7.90;75.70
19847;DHT22;10084;50.518;8.588;2022-12-07T14:43:57;7.80;75.60
19847;DHT22;10084;50.518;8.588;2022-12-07T14:46:23;7.70;75.50
19847;DHT22;10084;50.518;8.588;2022-12-07T14:48:49;7.70;75.70
19847;DHT22;10084;50.518;8.588;2022-12-07T14:51:15;7.60;75.50
19847;DHT22;10084;50.518;8.588;2022-12-07T14:53:45;7.50;75.50
19847;DHT22;10084;50.518;8.588;2022-12-07T14:56:11;7.40;75.60
19847;DHT22;10084;50.518;8.588;2022-12-07T14:58:37;7.40;75.70
19847;DHT22;10084;50.518;8.588;2022-12-07T15:01:03;7.30;75.70
19847;DHT22;10084;50.518;8.588;2022-12-07T15:03:29;7.30;75.90
19847;DHT22;10084;50.518;8.588;2022-12-07T15:05:55;7.20;75.90
19847;DHT22;10084;50.518;8.588;2022-12-07T15:08:20;7.20;75.90
19847;DHT22;10084;50.518;8.588;2022-12-07T15:10:46;7.10;75.90
19847;DHT22;10084;50.518;8.588;2022-12-07T15:13:12;7.00;76.00
19847;DHT22;10084;50.518;8.588;2022-12-07T15:15:56;7.00;76.10
19847;DHT22;10084;50.518;8.588;2022-12-07T15:18:23;7.00;76.10
19847;DHT22;10084;50.518;8.588;2022-12-07T15:20:49;6.90;76.00
19847;DHT22;10084;50.518;8.588;2022-12-07T15:23:15;6.90;76.00
19847;DHT22;10084;50.518;8.588;2022-12-07T15:25:45;6.80;76.10
19847;DHT22;10084;50.518;8.588;2022-12-07T15:28:12;6.70;76.10
19847;DHT22;10084;50.518;8.588;2022-12-07T15:30:39;6.70;76.20
19847;DHT22;10084;50.518;8.588;2022-12-07T15:33:05;6.60;76.20
19847;DHT22;10084;50.518;8.588;2022-12-07T15:35:30;6.60;76.30
19847;DHT22;10084;50.518;8.588;2022-12-07T15:37:56;6.50;76.30
19847;DHT22;10084;50.518;8.588;2022-12-07T15:40:22;6.50;76.40
19847;DHT22;10084;50.518;8.588;2022-12-07T15:42:48;6.50;85.10
19847;DHT22;10084;50.518;8.588;2022-12-07T15:45:13;6.40;82.70
19847;DHT22;10084;50.518;8.588;2022-12-07T15:47:41;6.30;84.90
19847;DHT22;10084;50.518;8.588;2022-12-07T15:50:11;6.30;86.40
19847;DHT22;10084;50.518;8.588;2022-12-07T15:52:37;6.20;78.10
19847;DHT22;10084;50.518;8.588;2022-12-07T15:55:03;6.20;76.50
19847;DHT22;10084;50.518;8.588;2022-12-07T15:57:30;6.10;76.60
19847;DHT22;10084;50.518;8.588;2022-12-07T15:59:56;6.10;76.60
19847;DHT22;10084;50.518;8.588;2022-12-07T16:02:23;6.10;76.70
19847;DHT22;10084;50.518;8.588;2022-12-07T16:04:49;6.00;76.60
19847;DHT22;10084;50.518;8.588;2022-12-07T16:07:16;6.00;76.60
19847;DHT22;10084;50.518;8.588;2022-12-07T16:09:42;5.90;76.70
19847;DHT22;10084;50.518;8.588;2022-12-07T16:12:08;5.90;76.80
19847;DHT22;10084;50.518;8.588;2022-12-07T16:14:34;5.90;76.80
19847;DHT22;10084;50.518;8.588;2022-12-07T16:17:00;5.90;76.90
19847;DHT22;10084;50.518;8.588;2022-12-07T16:19:26;5.80;76.90
19847;DHT22;10084;50.518;8.588;2022-12-07T16:21:51;5.80;77.00
19847;DHT22;10084;50.518;8.588;2022-12-07T16:24:17;5.80;77.00
19847;DHT22;10084;50.518;8.588;2022-12-07T16:26:44;5.70;77.00
19847;DHT22;10084;50.518;8.588;2022-12-07T16:29:13;5.70;77.10
19847;DHT22;10084;50.518;8.588;2022-12-07T16:31:39;5.70;77.20
19847;DHT22;10084;50.518;8.588;2022-12-07T16:34:05;5.70;77.30
19847;DHT22;10084;50.518;8.588;2022-12-07T16:36:31;5.70;77.30
19847;DHT22;10084;50.518;8.588;2022-12-07T16:38:58;5.70;77.30
19847;DHT22;10084;50.518;8.588;2022-12-07T16:41:24;5.70;77.30
19847;DHT22;10084;50.518;8.588;2022-12-07T16:43:50;5.60;77.30
19847;DHT22;10084;50.518;8.588;2022-12-07T16:46:16;5.60;77.30
19847;DHT22;10084;50.518;8.588;2022-12-07T16:48:42;5.60;77.40
19847;DHT22;10084;50.518;8.588;2022-12-07T16:51:10;5.60;77.40
19847;DHT22;10084;50.518;8.588;2022-12-07T16:53:38;5.60;77.50
19847;DHT22;10084;50.518;8.588;2022-12-07T16:56:13;5.60;77.50
19847;DHT22;10084;50.518;8.588;2022-12-07T16:58:40;5.60;77.60
19847;DHT22;10084;50.518;8.588;2022-12-07T17:01:16;5.60;77.60
19847;DHT22;10084;50.518;8.588;2022-12-07T17:03:43;5.60;77.70
19847;DHT22;10084;50.518;8.588;2022-12-07T17:06:16;5.60;77.80
19847;DHT22;10084;50.518;8.588;2022-12-07T17:08:43;5.60;77.80
19847;DHT22;10084;50.518;8.588;2022-12-07T17:11:10;5.50;77.70
19847;DHT22;10084;50.518;8.588;2022-12-07T17:13:36;5.50;77.80
19847;DHT22;10084;50.518;8.588;2022-12-07T17:16:20;5.50;77.80
19847;DHT22;10084;50.518;8.588;2022-12-07T17:18:46;5.50;77.80
19847;DHT22;10084;50.518;8.588;2022-12-07T17:21:12;5.50;77.80
19847;DHT22;10084;50.518;8.588;2022-12-07T17:23:37;5.50;77.90
19847;DHT22;10084;50.518;8.588;2022-12-07T17:26:08;5.50;77.90
19847;DHT22;10084;50.518;8.588;2022-12-07T17:28:35;5.50;77.90
19847;DHT22;10084;50.518;8.588;2022-12-07T17:31:04;5.50;78.00
19847;DHT22;10084;50.518;8.588;2022-12-07T17:33:31;5.50;78.10
19847;DHT22;10084;50.518;8.588;2022-12-07T17:35:57;5.50;78.10
19847;DHT22;10084;50.518;8.588;2022-12-07T17:38:23;5.50;78.10
19847;DHT22;10084;50.518;8.588;2022-12-07T17:40:48;5.50;78.10
19847;DHT22;10084;50.518;8.588;2022-12-07T17:43:14;5.40;78.20
19847;DHT22;10084;50.518;8.588;2022-12-07T17:45:40;5.40;78.20
19847;DHT22;10084;50.518;8.588;2022-12-07T17:48:05;5.40;78.30
19847;DHT22;10084;50.518;8.588;2022-12-07T17:50:31;5.40;78.30
19847;DHT22;10084;50.518;8.588;2022-12-07T17:53:17;5.40;78.30
19847;DHT22;10084;50.518;8.588;2022-12-07T17:55:43;5.30;78.30
19847;DHT22;10084;50.518;8.588;2022-12-07T17:58:09;5.30;78.40
19847;DHT22;10084;50.518;8.588;2022-12-07T18:00:35;5.30;78.50
19847;DHT22;10084;50.518;8.588;2022-12-07T18:03:05;5.20;78.50